sensor_id;sensor_type;location;lat;lon;timestamp;P1;durP1;ratioP1;P2;durP2;ratioP2
12359;SDS011;6244;51.460;7.090;2022-11-20T00:04:09;1075.32;;;431.95;;
12359;SDS011;6244;51.460;7.090;2022-11-20T00:09:06;1073.03;;;429.23;;
12359;SDS011;6244;51.460;7.090;2022-11-20T00:14:02;1077.82;;;445.23;;
12359;SDS011;6244;51.460;7.090;2022-11-20T00:18:59;1073.93;;;439.35;;
12359;SDS011;6244;51.460;7.090;2022-11-20T00:23:56;1069.72;;;425.27;;
12359;SDS011;6244;51.460;7.090;2022-11-20T00:28:53;1069.80;;;430.75;;
12359;SDS011;6244;51.460;7.090;2022-11-20T00:33:50;1068.75;;;434.10;;
12359;SDS011;6244;51.460;7.090;2022-11-20T00:38:46;1068.93;;;441.27;;
12359;SDS011;6244;51.460;7.090;2022-11-20T00:43:44;1068.78;;;439.77;;
12359;SDS011;6244;51.460;7.090;2022-11-20T00:48:40;1070.28;;;435.80;;
12359;SDS011;6244;51.460;7.090;2022-11-20T00:53:37;1067.77;;;431.33;;
12359;SDS011;6244;51.460;7.090;2022-11-20T00:58:34;1066.13;;;421.10;;
12359;SDS011;6244;51.460;7.090;2022-11-20T01:03:32;1069.15;;;435.50;;
12359;SDS011;6244;51.460;7.090;2022-11-20T01:08:29;1068.47;;;426.63;;
12359;SDS011;6244;51.460;7.090;2022-11-20T01:13:25;1068.55;;;423.60;;
12359;SDS011;6244;51.460;7.090;2022-11-20T01:18:35;1069.82;;;426.75;;
12359;SDS011;6244;51.460;7.090;2022-11-20T01:23:32;1076.75;;;428.55;;
12359;SDS011;6244;51.460;7.090;2022-11-20T01:28:29;1076.00;;;407.97;;
12359;SDS011;6244;51.460;7.090;2022-11-20T01:33:25;1074.50;;;404.35;;
12359;SDS011;6244;51.460;7.090;2022-11-20T01:38:23;1076.22;;;402.55;;
12359;SDS011;6244;51.460;7.090;2022-11-20T01:43:19;1078.68;;;403.65;;
12359;SDS011;6244;51.460;7.090;2022-11-20T01:48:20;1073.88;;;393.83;;
12359;SDS011;6244;51.460;7.090;2022-11-20T01:53:18;1076.40;;;412.52;;
12359;SDS011;6244;51.460;7.090;2022-11-20T01:58:18;1075.55;;;411.65;;
12359;SDS011;6244;51.460;7.090;2022-11-20T02:03:17;1076.25;;;418.42;;
12359;SDS011;6244;51.460;7.090;2022-11-20T02:08:14;1076.63;;;419.60;;
12359;SDS011;6244;51.460;7.090;2022-11-20T02:13:11;1069.00;;;404.45;;
12359;SDS011;6244;51.460;7.090;2022-11-20T02:18:26;1076.57;;;418.73;;
12359;SDS011;6244;51.460;7.090;2022-11-20T02:23:24;1075.50;;;437.20;;
12359;SDS011;6244;51.460;7.090;2022-11-20T02:28:23;1074.70;;;456.48;;
12359;SDS011;6244;51.460;7.090;2022-11-20T02:33:20;1076.72;;;437.17;;
12359;SDS011;6244;51.460;7.090;2022-11-20T02:38:16;1078.85;;;434.98;;
12359;SDS011;6244;51.460;7.090;2022-11-20T02:43:13;1077.72;;;419.17;;
12359;SDS011;6244;51.460;7.090;2022-11-20T02:48:13;1079.75;;;405.55;;
12359;SDS011;6244;51.460;7.090;2022-11-20T02:53:09;1075.60;;;391.42;;
12359;SDS011;6244;51.460;7.090;2022-11-20T02:58:05;1075.47;;;394.60;;
12359;SDS011;6244;51.460;7.090;2022-11-20T03:03:02;1059.90;;;429.60;;
12359;SDS011;6244;51.460;7.090;2022-11-20T03:07:59;1071.03;;;438.93;;
12359;SDS011;6244;51.460;7.090;2022-11-20T03:12:56;1073.10;;;449.95;;
12359;SDS011;6244;51.460;7.090;2022-11-20T03:17:53;1079.45;;;411.83;;
12359;SDS011;6244;51.460;7.090;2022-11-20T03:22:49;1077.97;;;426.60;;
12359;SDS011;6244;51.460;7.090;2022-11-20T03:27:47;1082.03;;;416.02;;
12359;SDS011;6244;51.460;7.090;2022-11-20T03:32:43;1083.30;;;432.10;;
12359;SDS011;6244;51.460;7.090;2022-11-20T03:37:39;1078.75;;;414.98;;
12359;SDS011;6244;51.460;7.090;2022-11-20T03:42:36;1076.67;;;413.57;;
12359;SDS011;6244;51.460;7.090;2022-11-20T03:47:42;1084.37;;;428.87;;
12359;SDS011;6244;51.460;7.090;2022-11-20T03:52:39;1082.80;;;435.13;;
12359;SDS011;6244;51.460;7.090;2022-11-20T03:57:35;1084.97;;;429.83;;
12359;SDS011;6244;51.460;7.090;2022-11-20T04:02:31;1076.70;;;451.27;;
12359;SDS011;6244;51.460;7.090;2022-11-20T04:07:29;1078.82;;;419.10;;
12359;SDS011;6244;51.460;7.090;2022-11-20T04:12:26;1075.47;;;433.15;;
12359;SDS011;6244;51.460;7.090;2022-11-20T04:17:22;1080.65;;;393.80;;
12359;SDS011;6244;51.460;7.090;2022-11-20T04:22:19;1080.37;;;403.47;;
12359;SDS011;6244;51.460;7.090;2022-11-20T04:27:16;1088.20;;;399.27;;
12359;SDS011;6244;51.460;7.090;2022-11-20T04:32:12;1083.65;;;394.52;;
12359;SDS011;6244;51.460;7.090;2022-11-20T04:37:09;1083.95;;;395.30;;
12359;SDS011;6244;51.460;7.090;2022-11-20T04:42:05;1081.57;;;396.30;;
12359;SDS011;6244;51.460;7.090;2022-11-20T04:47:20;1081.23;;;394.60;;
12359;SDS011;6244;51.460;7.090;2022-11-20T04:52:16;1081.32;;;400.98;;
12359;SDS011;6244;51.460;7.090;2022-11-20T04:57:13;1084.93;;;399.95;;
12359;SDS011;6244;51.460;7.090;2022-11-20T05:02:10;1084.88;;;397.95;;
12359;SDS011;6244;51.460;7.090;2022-11-20T05:07:07;1082.57;;;398.42;;
12359;SDS011;6244;51.460;7.090;2022-11-20T05:12:04;1084.45;;;400.60;;
12359;SDS011;6244;51.460;7.090;2022-11-20T05:17:00;1080.10;;;396.40;;
12359;SDS011;6244;51.460;7.090;2022-11-20T05:21:57;1084.30;;;393.40;;
12359;SDS011;6244;51.460;7.090;2022-11-20T05:26:54;1077.75;;;396.15;;
12359;SDS011;6244;51.460;7.090;2022-11-20T05:31:51;1085.27;;;399.17;;
12359;SDS011;6244;51.460;7.090;2022-11-20T05:36:47;1079.50;;;404.10;;
12359;SDS011;6244;51.460;7.090;2022-11-20T05:41:43;1085.60;;;406.20;;
12359;SDS011;6244;51.460;7.090;2022-11-20T05:46:41;1083.57;;;408.07;;
12359;SDS011;6244;51.460;7.090;2022-11-20T05:51:37;1081.28;;;401.60;;
12359;SDS011;6244;51.460;7.090;2022-11-20T05:56:33;1086.53;;;407.00;;
12359;SDS011;6244;51.460;7.090;2022-11-20T06:01:30;1086.32;;;401.02;;
12359;SDS011;6244;51.460;7.090;2022-11-20T06:06:28;1087.22;;;397.63;;
12359;SDS011;6244;51.460;7.090;2022-11-20T06:11:25;1080.93;;;396.43;;
12359;SDS011;6244;51.460;7.090;2022-11-20T06:16:21;1083.43;;;406.13;;
12359;SDS011;6244;51.460;7.090;2022-11-20T06:21:18;1086.40;;;398.70;;
12359;SDS011;6244;51.460;7.090;2022-11-20T06:26:16;1079.45;;;391.70;;
12359;SDS011;6244;51.460;7.090;2022-11-20T06:31:14;1079.38;;;392.48;;
12359;SDS011;6244;51.460;7.090;2022-11-20T06:36:10;1079.93;;;400.35;;
12359;SDS011;6244;51.460;7.090;2022-11-20T06:41:08;1082.78;;;398.88;;
12359;SDS011;6244;51.460;7.090;2022-11-20T06:46:08;1083.80;;;403.10;;
12359;SDS011;6244;51.460;7.090;2022-11-20T06:51:05;1082.55;;;397.27;;
12359;SDS011;6244;51.460;7.090;2022-11-20T06:56:02;1085.07;;;399.70;;
12359;SDS011;6244;51.460;7.090;2022-11-20T07:00:58;1088.45;;;406.83;;
12359;SDS011;6244;51.460;7.090;2022-11-20T07:05:56;1083.15;;;391.60;;
12359;SDS011;6244;51.460;7.090;2022-11-20T07:10:56;1084.87;;;392.07;;
12359;SDS011;6244;51.460;7.090;2022-11-20T07:15:53;1083.03;;;392.27;;
12359;SDS011;6244;51.460;7.090;2022-11-20T07:20:49;1081.60;;;397.30;;
12359;SDS011;6244;51.460;7.090;2022-11-20T07:25:46;1083.13;;;395.42;;
12359;SDS011;6244;51.460;7.090;2022-11-20T07:30:43;1081.15;;;392.83;;
12359;SDS011;6244;51.460;7.090;2022-11-20T07:35:45;1077.85;;;391.92;;
12359;SDS011;6244;51.460;7.090;2022-11-20T07:40:41;1083.15;;;392.95;;
12359;SDS011;6244;51.460;7.090;2022-11-20T07:45:39;1080.85;;;394.15;;
12359;SDS011;6244;51.460;7.090;2022-11-20T07:50:35;1074.33;;;412.13;;
12359;SDS011;6244;51.460;7.090;2022-11-20T07:55:32;1079.83;;;396.00;;
12359;SDS011;6244;51.460;7.090;2022-11-20T08:00:28;1083.43;;;396.38;;
12359;SDS011;6244;51.460;7.090;2022-11-20T08:05:26;1084.80;;;405.23;;
12359;SDS011;6244;51.460;7.090;2022-11-20T08:10:22;1087.70;;;401.43;;
12359;SDS011;6244;51.460;7.090;2022-11-20T08:15:18;1083.15;;;401.58;;
12359;SDS011;6244;51.460;7.090;2022-11-20T08:20:15;1084.20;;;402.20;;
12359;SDS011;6244;51.460;7.090;2022-11-20T08:25:12;1085.15;;;404.42;;
12359;SDS011;6244;51.460;7.090;2022-11-20T08:30:09;1080.50;;;397.20;;
12359;SDS011;6244;51.460;7.090;2022-11-20T08:35:06;1079.22;;;401.70;;
12359;SDS011;6244;51.460;7.090;2022-11-20T08:40:02;1078.30;;;404.03;;
12359;SDS011;6244;51.460;7.090;2022-11-20T08:45:00;1075.25;;;398.63;;
12359;SDS011;6244;51.460;7.090;2022-11-20T08:49:57;1076.95;;;397.98;;
12359;SDS011;6244;51.460;7.090;2022-11-20T08:54:53;1076.93;;;413.37;;
12359;SDS011;6244;51.460;7.090;2022-11-20T08:59:49;1077.40;;;423.20;;
12359;SDS011;6244;51.460;7.090;2022-11-20T09:04:47;1092.77;;;458.10;;
12359;SDS011;6244;51.460;7.090;2022-11-20T09:09:43;1078.10;;;454.83;;
12359;SDS011;6244;51.460;7.090;2022-11-20T09:14:39;1089.20;;;465.27;;
12359;SDS011;6244;51.460;7.090;2022-11-20T09:19:36;1085.68;;;443.00;;
12359;SDS011;6244;51.460;7.090;2022-11-20T09:24:33;1086.65;;;460.60;;
12359;SDS011;6244;51.460;7.090;2022-11-20T09:29:30;1082.90;;;458.30;;
12359;SDS011;6244;51.460;7.090;2022-11-20T09:34:26;1081.95;;;444.27;;
12359;SDS011;6244;51.460;7.090;2022-11-20T09:39:22;1078.97;;;443.45;;
12359;SDS011;6244;51.460;7.090;2022-11-20T09:44:24;1080.88;;;444.77;;
12359;SDS011;6244;51.460;7.090;2022-11-20T09:49:24;1084.25;;;455.85;;
12359;SDS011;6244;51.460;7.090;2022-11-20T09:54:26;1085.10;;;448.90;;
12359;SDS011;6244;51.460;7.090;2022-11-20T09:59:28;1090.13;;;446.63;;
12359;SDS011;6244;51.460;7.090;2022-11-20T10:04:27;1097.53;;;466.13;;
12359;SDS011;6244;51.460;7.090;2022-11-20T10:09:26;1092.95;;;482.90;;
12359;SDS011;6244;51.460;7.090;2022-11-20T10:14:26;1092.10;;;474.20;;
12359;SDS011;6244;51.460;7.090;2022-11-20T10:19:43;1089.93;;;476.57;;
12359;SDS011;6244;51.460;7.090;2022-11-20T10:24:43;1127.72;;;509.00;;
12359;SDS011;6244;51.460;7.090;2022-11-20T10:29:41;1137.75;;;573.70;;
12359;SDS011;6244;51.460;7.090;2022-11-20T10:34:41;1135.83;;;598.70;;
12359;SDS011;6244;51.460;7.090;2022-11-20T10:39:42;1128.57;;;575.40;;
12359;SDS011;6244;51.460;7.090;2022-11-20T10:44:39;1120.72;;;545.20;;
12359;SDS011;6244;51.460;7.090;2022-11-20T10:49:57;1114.70;;;520.93;;
12359;SDS011;6244;51.460;7.090;2022-11-20T11:09:04;973.17;;;408.80;;
12359;SDS011;6244;51.460;7.090;2022-11-20T11:14:05;972.97;;;418.27;;
12359;SDS011;6244;51.460;7.090;2022-11-20T11:19:05;965.15;;;418.00;;
12359;SDS011;6244;51.460;7.090;2022-11-20T11:30:29;950.30;;;434.25;;
12359;SDS011;6244;51.460;7.090;2022-11-20T11:40:40;953.40;;;430.95;;
12359;SDS011;6244;51.460;7.090;2022-11-20T11:45:37;963.95;;;443.55;;
12359;SDS011;6244;51.460;7.090;2022-11-20T11:50:34;963.17;;;444.63;;
12359;SDS011;6244;51.460;7.090;2022-11-20T12:00:30;960.80;;;432.10;;
12359;SDS011;6244;51.460;7.090;2022-11-20T12:05:30;956.30;;;430.80;;
12359;SDS011;6244;51.460;7.090;2022-11-20T12:10:37;954.50;;;430.70;;
12359;SDS011;6244;51.460;7.090;2022-11-20T12:15:41;952.50;;;429.40;;
12359;SDS011;6244;51.460;7.090;2022-11-20T12:20:45;960.95;;;428.50;;
12359;SDS011;6244;51.460;7.090;2022-11-20T12:25:47;963.50;;;430.50;;
12359;SDS011;6244;51.460;7.090;2022-11-20T12:30:58;964.00;;;436.10;;
12359;SDS011;6244;51.460;7.090;2022-11-20T12:36:06;955.90;;;434.10;;
12359;SDS011;6244;51.460;7.090;2022-11-20T12:41:12;959.60;;;434.60;;
12359;SDS011;6244;51.460;7.090;2022-11-20T12:46:37;957.35;;;430.45;;
12359;SDS011;6244;51.460;7.090;2022-11-20T12:51:49;960.40;;;435.77;;
12359;SDS011;6244;51.460;7.090;2022-11-20T12:56:56;957.45;;;434.90;;
12359;SDS011;6244;51.460;7.090;2022-11-20T13:01:58;954.10;;;436.50;;
12359;SDS011;6244;51.460;7.090;2022-11-20T13:07:12;954.20;;;441.70;;
12359;SDS011;6244;51.460;7.090;2022-11-20T13:12:10;953.15;;;439.70;;
12359;SDS011;6244;51.460;7.090;2022-11-20T13:17:14;948.85;;;441.85;;
12359;SDS011;6244;51.460;7.090;2022-11-20T13:22:23;948.00;;;438.50;;
12359;SDS011;6244;51.460;7.090;2022-11-20T13:47:23;932.00;;;462.60;;
12359;SDS011;6244;51.460;7.090;2022-11-20T13:52:33;925.70;;;456.90;;
12359;SDS011;6244;51.460;7.090;2022-11-20T17:26:19;918.20;;;440.60;;
12359;SDS011;6244;51.460;7.090;2022-11-20T18:31:10;917.70;;;454.70;;
12359;SDS011;6244;51.460;7.090;2022-11-20T18:36:13;912.70;;;454.60;;
12359;SDS011;6244;51.460;7.090;2022-11-20T18:41:11;912.95;;;445.35;;
12359;SDS011;6244;51.460;7.090;2022-11-20T18:46:28;915.70;;;436.90;;
12359;SDS011;6244;51.460;7.090;2022-11-20T19:26:08;914.40;;;424.00;;
12359;SDS011;6244;51.460;7.090;2022-11-20T21:45:25;955.10;;;429.65;;
12359;SDS011;6244;51.460;7.090;2022-11-20T21:50:23;964.23;;;424.50;;
12359;SDS011;6244;51.460;7.090;2022-11-20T21:55:19;962.53;;;421.30;;
12359;SDS011;6244;51.460;7.090;2022-11-20T22:00:16;957.38;;;423.20;;
12359;SDS011;6244;51.460;7.090;2022-11-20T22:05:13;962.87;;;422.80;;
12359;SDS011;6244;51.460;7.090;2022-11-20T22:10:11;966.13;;;423.33;;
12359;SDS011;6244;51.460;7.090;2022-11-20T22:15:08;966.72;;;426.80;;
12359;SDS011;6244;51.460;7.090;2022-11-20T22:20:05;962.63;;;423.98;;
12359;SDS011;6244;51.460;7.090;2022-11-20T22:25:06;962.42;;;420.83;;
12359;SDS011;6244;51.460;7.090;2022-11-20T22:30:05;957.33;;;421.67;;
12359;SDS011;6244;51.460;7.090;2022-11-20T22:35:06;960.42;;;423.17;;
12359;SDS011;6244;51.460;7.090;2022-11-20T22:40:03;959.10;;;434.63;;
12359;SDS011;6244;51.460;7.090;2022-11-20T22:45:00;959.80;;;417.20;;
12359;SDS011;6244;51.460;7.090;2022-11-20T22:49:58;957.47;;;418.23;;
12359;SDS011;6244;51.460;7.090;2022-11-20T22:54:55;962.07;;;422.30;;
12359;SDS011;6244;51.460;7.090;2022-11-20T22:59:51;961.20;;;419.35;;
12359;SDS011;6244;51.460;7.090;2022-11-20T23:04:47;960.10;;;429.63;;
12359;SDS011;6244;51.460;7.090;2022-11-20T23:09:45;962.03;;;419.03;;
12359;SDS011;6244;51.460;7.090;2022-11-20T23:14:42;964.05;;;421.75;;
12359;SDS011;6244;51.460;7.090;2022-11-20T23:19:38;965.20;;;415.47;;
12359;SDS011;6244;51.460;7.090;2022-11-20T23:24:35;966.90;;;409.92;;
12359;SDS011;6244;51.460;7.090;2022-11-20T23:29:32;963.85;;;419.52;;
12359;SDS011;6244;51.460;7.090;2022-11-20T23:34:29;959.47;;;432.55;;
12359;SDS011;6244;51.460;7.090;2022-11-20T23:39:25;960.87;;;433.90;;
12359;SDS011;6244;51.460;7.090;2022-11-20T23:44:22;957.70;;;427.63;;
12359;SDS011;6244;51.460;7.090;2022-11-20T23:49:20;961.00;;;433.87;;
12359;SDS011;6244;51.460;7.090;2022-11-20T23:54:17;964.47;;;441.75;;
12359;SDS011;6244;51.460;7.090;2022-11-20T23:59:13;960.87;;;436.57;;
